<?xml version="1.0" encoding="UTF-8" standalone="no" ?>
<gpx xmlns="http://www.topografix.com/GPX/1/1" xmlns:xsi="http://www.w3.org/2001/XMLSchema-instance" xsi:schemaLocation="http://www.topografix.com/GPX/1/1 http://www.topografix.com/GPX/1/1/gpx.xsd" version="1.1" creator="VisuGPX - https://www.visugpx.com">
  <metadata>
    <name>StAndreEaux_Autour_8-21km</name>
    <desc><![CDATA[gnerando idor:7129608_7129617_7129633_9104519_]]></desc>
  </metadata>
  <trk>
    <name><![CDATA[StAndréEaux_Marland_11km-7129617]]></name>
    <extensions>
      <line xmlns="http://www.topografix.com/GPX/gpx_style/0/2">
        <color>FF0000</color>
        <width>4</width>
      </line>
    </extensions>
    <trkseg>
      <trkpt lat="47.33306" lon="-2.28889">
        <ele>7</ele>
        <time>2023-11-12T07:00:53Z</time>
      </trkpt>
      <trkpt lat="47.3344" lon="-2.28829">
        <ele>3</ele>
        <time>2023-11-12T07:04:00Z</time>
      </trkpt>
      <trkpt lat="47.33504" lon="-2.28683">
        <ele>6</ele>
        <time>2023-11-12T07:06:37Z</time>
      </trkpt>
      <trkpt lat="47.33629" lon="-2.28631">
        <ele>3</ele>
        <time>2023-11-12T07:09:30Z</time>
      </trkpt>
      <trkpt lat="47.33687" lon="-2.28537">
        <ele>2</ele>
        <time>2023-11-12T07:11:25Z</time>
      </trkpt>
      <trkpt lat="47.3353" lon="-2.28249">
        <ele>2</ele>
        <time>2023-11-12T07:17:00Z</time>
      </trkpt>
      <trkpt lat="47.33463" lon="-2.28279">
        <ele>4</ele>
        <time>2023-11-12T07:18:33Z</time>
      </trkpt>
      <trkpt lat="47.33388" lon="-2.27644">
        <ele>2</ele>
        <time>2023-11-12T07:28:16Z</time>
      </trkpt>
      <trkpt lat="47.33492" lon="-2.27537">
        <ele>1.8</ele>
        <time>2023-11-12T07:31:05Z</time>
      </trkpt>
      <trkpt lat="47.3342" lon="-2.27091">
        <ele>2</ele>
        <time>2023-11-12T07:38:00Z</time>
      </trkpt>
      <trkpt lat="47.33356" lon="-2.26988">
        <ele>1</ele>
        <time>2023-11-12T07:40:06Z</time>
      </trkpt>
      <trkpt lat="47.33193" lon="-2.26996">
        <ele>2</ele>
        <time>2023-11-12T07:43:44Z</time>
      </trkpt>
      <trkpt lat="47.33047" lon="-2.27331">
        <ele>-1</ele>
        <time>2023-11-12T07:49:44Z</time>
      </trkpt>
      <trkpt lat="47.32948" lon="-2.27657">
        <ele>-1</ele>
        <time>2023-11-12T07:55:07Z</time>
      </trkpt>
      <trkpt lat="47.3298" lon="-2.2782">
        <ele>-1</ele>
        <time>2023-11-12T07:57:41Z</time>
      </trkpt>
      <trkpt lat="47.33106" lon="-2.27889">
        <ele>1</ele>
        <time>2023-11-12T08:00:40Z</time>
      </trkpt>
      <trkpt lat="47.32998" lon="-2.28065">
        <ele>1</ele>
        <time>2023-11-12T08:04:15Z</time>
      </trkpt>
      <trkpt lat="47.32759" lon="-2.28159">
        <ele>-1</ele>
        <time>2023-11-12T08:09:45Z</time>
      </trkpt>
      <trkpt lat="47.32692" lon="-2.28275">
        <ele>3</ele>
        <time>2023-11-12T08:12:03Z</time>
      </trkpt>
      <trkpt lat="47.32722" lon="-2.28571">
        <ele>4</ele>
        <time>2023-11-12T08:16:33Z</time>
      </trkpt>
      <trkpt lat="47.32794" lon="-2.28708">
        <ele>5</ele>
        <time>2023-11-12T08:19:10Z</time>
      </trkpt>
      <trkpt lat="47.32777" lon="-2.28897">
        <ele>5</ele>
        <time>2023-11-12T08:22:03Z</time>
      </trkpt>
      <trkpt lat="47.32748" lon="-2.29099">
        <ele>5</ele>
        <time>2023-11-12T08:25:09Z</time>
      </trkpt>
      <trkpt lat="47.32788" lon="-2.29232">
        <ele>7</ele>
        <time>2023-11-12T08:27:21Z</time>
      </trkpt>
      <trkpt lat="47.32727" lon="-2.29352">
        <ele>8</ele>
        <time>2023-11-12T08:29:37Z</time>
      </trkpt>
      <trkpt lat="47.32658" lon="-2.2958">
        <ele>13</ele>
        <time>2023-11-12T08:33:23Z</time>
      </trkpt>
      <trkpt lat="47.32562" lon="-2.2976">
        <ele>16</ele>
        <time>2023-11-12T08:36:50Z</time>
      </trkpt>
      <trkpt lat="47.32439" lon="-2.29867">
        <ele>16</ele>
        <time>2023-11-12T08:40:00Z</time>
      </trkpt>
      <trkpt lat="47.32454" lon="-2.29949">
        <ele>15</ele>
        <time>2023-11-12T08:41:17Z</time>
      </trkpt>
      <trkpt lat="47.325" lon="-2.30133">
        <ele>13</ele>
        <time>2023-11-12T08:44:15Z</time>
      </trkpt>
      <trkpt lat="47.32541" lon="-2.30386">
        <ele>12</ele>
        <time>2023-11-12T08:48:10Z</time>
      </trkpt>
      <trkpt lat="47.325" lon="-2.30416">
        <ele>12</ele>
        <time>2023-11-12T08:49:11Z</time>
      </trkpt>
      <trkpt lat="47.32576" lon="-2.30897">
        <ele>12</ele>
        <time>2023-11-12T08:56:38Z</time>
      </trkpt>
      <trkpt lat="47.32559" lon="-2.31193">
        <ele>10</ele>
        <time>2023-11-12T09:01:06Z</time>
      </trkpt>
      <trkpt lat="47.32559" lon="-2.31391">
        <ele>9</ele>
        <time>2023-11-12T09:04:05Z</time>
      </trkpt>
      <trkpt lat="47.32943" lon="-2.31283">
        <ele>4</ele>
        <time>2023-11-12T09:12:47Z</time>
      </trkpt>
      <trkpt lat="47.32902" lon="-2.31082">
        <ele>3</ele>
        <time>2023-11-12T09:15:57Z</time>
      </trkpt>
      <trkpt lat="47.32905" lon="-2.30837">
        <ele>4</ele>
        <time>2023-11-12T09:19:39Z</time>
      </trkpt>
      <trkpt lat="47.3305" lon="-2.30828">
        <ele>1</ele>
        <time>2023-11-12T09:22:52Z</time>
      </trkpt>
      <trkpt lat="47.331" lon="-2.30588">
        <ele>3</ele>
        <time>2023-11-12T09:26:39Z</time>
      </trkpt>
      <trkpt lat="47.33335" lon="-2.30524">
        <ele>2</ele>
        <time>2023-11-12T09:31:58Z</time>
      </trkpt>
      <trkpt lat="47.33324" lon="-2.30399">
        <ele>1</ele>
        <time>2023-11-12T09:33:52Z</time>
      </trkpt>
      <trkpt lat="47.33373" lon="-2.30378">
        <ele>1</ele>
        <time>2023-11-12T09:35:00Z</time>
      </trkpt>
      <trkpt lat="47.33469" lon="-2.29992">
        <ele>1</ele>
        <time>2023-11-12T09:41:12Z</time>
      </trkpt>
      <trkpt lat="47.33556" lon="-2.30004">
        <ele>-2</ele>
        <time>2023-11-12T09:43:09Z</time>
      </trkpt>
      <trkpt lat="47.33652" lon="-2.2988">
        <ele>1</ele>
        <time>2023-11-12T09:45:59Z</time>
      </trkpt>
      <trkpt lat="47.33626" lon="-2.29816">
        <ele>1.7</ele>
        <time>2023-11-12T09:47:07Z</time>
      </trkpt>
      <trkpt lat="47.33687" lon="-2.29768">
        <ele>1</ele>
        <time>2023-11-12T09:48:39Z</time>
      </trkpt>
      <trkpt lat="47.33798" lon="-2.29811">
        <ele>1</ele>
        <time>2023-11-12T09:51:12Z</time>
      </trkpt>
      <trkpt lat="47.3387" lon="-2.29781">
        <ele>-1</ele>
        <time>2023-11-12T09:52:52Z</time>
      </trkpt>
      <trkpt lat="47.33911" lon="-2.29507">
        <ele>3</ele>
        <time>2023-11-12T09:57:06Z</time>
      </trkpt>
      <trkpt lat="47.33952" lon="-2.29412">
        <ele>4</ele>
        <time>2023-11-12T09:58:47Z</time>
      </trkpt>
      <trkpt lat="47.33806" lon="-2.29284">
        <ele>5</ele>
        <time>2023-11-12T10:02:34Z</time>
      </trkpt>
      <trkpt lat="47.33821" lon="-2.2912">
        <ele>3</ele>
        <time>2023-11-12T10:05:04Z</time>
      </trkpt>
      <trkpt lat="47.34091" lon="-2.28906">
        <ele>2</ele>
        <time>2023-11-12T10:11:53Z</time>
      </trkpt>
      <trkpt lat="47.34202" lon="-2.28863">
        <ele>2</ele>
        <time>2023-11-12T10:14:26Z</time>
      </trkpt>
      <trkpt lat="47.34182" lon="-2.28683">
        <ele>3</ele>
        <time>2023-11-12T10:17:11Z</time>
      </trkpt>
      <trkpt lat="47.34112" lon="-2.2867">
        <ele>3</ele>
        <time>2023-11-12T10:18:45Z</time>
      </trkpt>
      <trkpt lat="47.34091" lon="-2.28743">
        <ele>3</ele>
        <time>2023-11-12T10:19:57Z</time>
      </trkpt>
      <trkpt lat="47.33966" lon="-2.28683">
        <ele>2</ele>
        <time>2023-11-12T10:22:52Z</time>
      </trkpt>
      <trkpt lat="47.33833" lon="-2.28438">
        <ele>1</ele>
        <time>2023-11-12T10:27:36Z</time>
      </trkpt>
      <trkpt lat="47.33629" lon="-2.28588">
        <ele>2</ele>
        <time>2023-11-12T10:32:40Z</time>
      </trkpt>
      <trkpt lat="47.33478" lon="-2.28691">
        <ele>6</ele>
        <time>2023-11-12T10:36:22Z</time>
      </trkpt>
      <trkpt lat="47.33417" lon="-2.2885">
        <ele>3</ele>
        <time>2023-11-12T10:39:07Z</time>
      </trkpt>
      <trkpt lat="47.333" lon="-2.28893">
        <ele>7</ele>
        <time>2023-11-12T10:41:48Z</time>
      </trkpt>
    </trkseg>
  </trk>
</gpx>